sensor_id;sensor_type;location;lat;lon;timestamp;P1;durP1;ratioP1;P2;durP2;ratioP2
38717;SDS011;24468;52.128;9.278;2023-02-15T00:00:11;9.77;;;7.32;;
38717;SDS011;24468;52.128;9.278;2023-02-15T00:02:38;11.35;;;7.65;;
38717;SDS011;24468;52.128;9.278;2023-02-15T00:05:03;11.93;;;8.38;;
38717;SDS011;24468;52.128;9.278;2023-02-15T00:07:29;9.98;;;7.53;;
38717;SDS011;24468;52.128;9.278;2023-02-15T00:09:55;12.98;;;8.30;;
38717;SDS011;24468;52.128;9.278;2023-02-15T00:12:21;9.75;;;7.28;;
38717;SDS011;24468;52.128;9.278;2023-02-15T00:14:47;12.88;;;8.85;;
38717;SDS011;24468;52.128;9.278;2023-02-15T00:17:13;17.02;;;9.88;;
38717;SDS011;24468;52.128;9.278;2023-02-15T00:19:38;13.00;;;8.00;;
38717;SDS011;24468;52.128;9.278;2023-02-15T00:22:05;11.20;;;7.45;;
38717;SDS011;24468;52.128;9.278;2023-02-15T00:24:30;13.75;;;8.38;;
38717;SDS011;24468;52.128;9.278;2023-02-15T00:26:56;12.98;;;9.27;;
38717;SDS011;24468;52.128;9.278;2023-02-15T00:29:22;11.07;;;9.07;;
38717;SDS011;24468;52.128;9.278;2023-02-15T00:31:48;14.45;;;9.43;;
38717;SDS011;24468;52.128;9.278;2023-02-15T00:34:18;12.18;;;9.13;;
38717;SDS011;24468;52.128;9.278;2023-02-15T00:36:48;12.77;;;8.98;;
38717;SDS011;24468;52.128;9.278;2023-02-15T00:39:14;12.80;;;9.05;;
38717;SDS011;24468;52.128;9.278;2023-02-15T00:41:41;15.15;;;10.77;;
38717;SDS011;24468;52.128;9.278;2023-02-15T00:44:07;14.48;;;11.07;;
38717;SDS011;24468;52.128;9.278;2023-02-15T00:46:33;14.68;;;10.55;;
38717;SDS011;24468;52.128;9.278;2023-02-15T00:48:59;14.90;;;10.05;;
38717;SDS011;24468;52.128;9.278;2023-02-15T00:51:25;16.70;;;11.38;;
38717;SDS011;24468;52.128;9.278;2023-02-15T00:53:51;13.82;;;10.25;;
38717;SDS011;24468;52.128;9.278;2023-02-15T00:56:17;17.80;;;10.77;;
38717;SDS011;24468;52.128;9.278;2023-02-15T00:58:42;15.60;;;10.23;;
38717;SDS011;24468;52.128;9.278;2023-02-15T01:01:12;16.60;;;11.90;;
38717;SDS011;24468;52.128;9.278;2023-02-15T01:03:42;13.52;;;10.27;;
38717;SDS011;24468;52.128;9.278;2023-02-15T01:06:07;15.30;;;9.82;;
38717;SDS011;24468;52.128;9.278;2023-02-15T01:08:35;14.95;;;11.45;;
38717;SDS011;24468;52.128;9.278;2023-02-15T01:11:04;17.77;;;12.88;;
38717;SDS011;24468;52.128;9.278;2023-02-15T01:13:36;15.80;;;11.38;;
38717;SDS011;24468;52.128;9.278;2023-02-15T01:16:02;15.85;;;11.75;;
38717;SDS011;24468;52.128;9.278;2023-02-15T01:18:28;19.35;;;11.75;;
38717;SDS011;24468;52.128;9.278;2023-02-15T01:20:54;13.40;;;10.52;;
38717;SDS011;24468;52.128;9.278;2023-02-15T01:23:20;16.92;;;11.65;;
38717;SDS011;24468;52.128;9.278;2023-02-15T01:25:46;14.35;;;10.43;;
38717;SDS011;24468;52.128;9.278;2023-02-15T01:28:12;15.45;;;11.10;;
38717;SDS011;24468;52.128;9.278;2023-02-15T01:30:37;18.10;;;11.02;;
38717;SDS011;24468;52.128;9.278;2023-02-15T01:33:03;16.52;;;11.77;;
38717;SDS011;24468;52.128;9.278;2023-02-15T01:35:29;15.98;;;11.93;;
38717;SDS011;24468;52.128;9.278;2023-02-15T01:37:55;16.20;;;11.65;;
38717;SDS011;24468;52.128;9.278;2023-02-15T01:40:21;15.15;;;10.48;;
38717;SDS011;24468;52.128;9.278;2023-02-15T01:42:52;17.67;;;11.30;;
38717;SDS011;24468;52.128;9.278;2023-02-15T01:47:53;17.20;;;11.23;;
38717;SDS011;24468;52.128;9.278;2023-02-15T01:50:37;16.10;;;11.48;;
38717;SDS011;24468;52.128;9.278;2023-02-15T01:55:48;18.17;;;11.75;;
38717;SDS011;24468;52.128;9.278;2023-02-15T01:58:22;14.38;;;11.15;;
38717;SDS011;24468;52.128;9.278;2023-02-15T02:00:50;16.95;;;11.60;;
38717;SDS011;24468;52.128;9.278;2023-02-15T02:03:16;17.13;;;12.00;;
38717;SDS011;24468;52.128;9.278;2023-02-15T02:05:42;13.65;;;10.48;;
38717;SDS011;24468;52.128;9.278;2023-02-15T02:08:08;15.20;;;11.10;;
38717;SDS011;24468;52.128;9.278;2023-02-15T02:10:34;16.27;;;11.07;;
38717;SDS011;24468;52.128;9.278;2023-02-15T02:13:02;16.75;;;11.23;;
38717;SDS011;24468;52.128;9.278;2023-02-15T02:15:42;13.25;;;10.82;;
38717;SDS011;24468;52.128;9.278;2023-02-15T02:18:30;14.52;;;10.80;;
38717;SDS011;24468;52.128;9.278;2023-02-15T02:24:15;17.35;;;11.63;;
38717;SDS011;24468;52.128;9.278;2023-02-15T02:38:02;16.83;;;11.80;;
38717;SDS011;24468;52.128;9.278;2023-02-15T02:43:35;17.08;;;12.13;;
38717;SDS011;24468;52.128;9.278;2023-02-15T02:48:45;16.33;;;12.35;;
38717;SDS011;24468;52.128;9.278;2023-02-15T02:51:13;20.67;;;14.23;;
38717;SDS011;24468;52.128;9.278;2023-02-15T02:53:45;17.60;;;12.68;;
38717;SDS011;24468;52.128;9.278;2023-02-15T02:56:22;16.38;;;13.02;;
38717;SDS011;24468;52.128;9.278;2023-02-15T02:59:05;17.40;;;12.73;;
38717;SDS011;24468;52.128;9.278;2023-02-15T03:01:43;19.48;;;13.38;;
38717;SDS011;24468;52.128;9.278;2023-02-15T03:04:21;19.98;;;13.65;;
38717;SDS011;24468;52.128;9.278;2023-02-15T03:06:57;20.70;;;14.05;;
38717;SDS011;24468;52.128;9.278;2023-02-15T03:09:44;17.90;;;13.48;;
38717;SDS011;24468;52.128;9.278;2023-02-15T03:12:16;21.20;;;14.52;;
38717;SDS011;24468;52.128;9.278;2023-02-15T03:14:48;19.67;;;13.43;;
38717;SDS011;24468;52.128;9.278;2023-02-15T03:17:22;20.35;;;13.75;;
38717;SDS011;24468;52.128;9.278;2023-02-15T03:19:51;17.30;;;12.68;;
38717;SDS011;24468;52.128;9.278;2023-02-15T03:22:18;18.83;;;13.20;;
38717;SDS011;24468;52.128;9.278;2023-02-15T03:24:58;19.42;;;13.65;;
38717;SDS011;24468;52.128;9.278;2023-02-15T03:27:39;20.58;;;13.95;;
38717;SDS011;24468;52.128;9.278;2023-02-15T03:30:12;18.88;;;13.80;;
38717;SDS011;24468;52.128;9.278;2023-02-15T03:32:39;19.27;;;13.95;;
38717;SDS011;24468;52.128;9.278;2023-02-15T03:35:08;21.75;;;15.00;;
38717;SDS011;24468;52.128;9.278;2023-02-15T03:37:40;19.08;;;13.52;;
38717;SDS011;24468;52.128;9.278;2023-02-15T03:40:21;18.45;;;13.45;;
38717;SDS011;24468;52.128;9.278;2023-02-15T03:43:21;17.70;;;13.65;;
38717;SDS011;24468;52.128;9.278;2023-02-15T03:46:15;18.70;;;13.88;;
38717;SDS011;24468;52.128;9.278;2023-02-15T03:49:02;19.67;;;13.80;;
38717;SDS011;24468;52.128;9.278;2023-02-15T03:51:56;19.13;;;13.70;;
38717;SDS011;24468;52.128;9.278;2023-02-15T03:57:09;18.67;;;13.80;;
38717;SDS011;24468;52.128;9.278;2023-02-15T03:59:59;21.27;;;14.07;;
38717;SDS011;24468;52.128;9.278;2023-02-15T04:03:09;20.17;;;14.02;;
38717;SDS011;24468;52.128;9.278;2023-02-15T04:05:37;19.95;;;13.82;;
38717;SDS011;24468;52.128;9.278;2023-02-15T04:08:03;18.25;;;13.93;;
38717;SDS011;24468;52.128;9.278;2023-02-15T04:10:29;17.67;;;13.57;;
38717;SDS011;24468;52.128;9.278;2023-02-15T04:13:13;17.77;;;12.23;;
38717;SDS011;24468;52.128;9.278;2023-02-15T04:15:38;16.92;;;12.45;;
38717;SDS011;24468;52.128;9.278;2023-02-15T04:18:23;17.52;;;12.30;;
38717;SDS011;24468;52.128;9.278;2023-02-15T04:21:07;20.33;;;14.07;;
38717;SDS011;24468;52.128;9.278;2023-02-15T04:23:51;16.73;;;12.32;;
38717;SDS011;24468;52.128;9.278;2023-02-15T04:26:35;17.92;;;12.48;;
38717;SDS011;24468;52.128;9.278;2023-02-15T04:29:01;17.67;;;12.98;;
38717;SDS011;24468;52.128;9.278;2023-02-15T04:31:26;19.00;;;13.45;;
38717;SDS011;24468;52.128;9.278;2023-02-15T04:33:51;17.00;;;13.25;;
38717;SDS011;24468;52.128;9.278;2023-02-15T04:36:17;14.55;;;10.25;;
38717;SDS011;24468;52.128;9.278;2023-02-15T04:38:42;18.80;;;12.40;;
38717;SDS011;24468;52.128;9.278;2023-02-15T04:41:08;16.73;;;11.52;;
38717;SDS011;24468;52.128;9.278;2023-02-15T04:43:35;16.38;;;12.43;;
38717;SDS011;24468;52.128;9.278;2023-02-15T04:46:01;16.50;;;12.63;;
38717;SDS011;24468;52.128;9.278;2023-02-15T04:48:26;16.45;;;11.73;;
38717;SDS011;24468;52.128;9.278;2023-02-15T04:50:52;16.77;;;11.57;;
38717;SDS011;24468;52.128;9.278;2023-02-15T04:53:17;15.68;;;10.88;;
38717;SDS011;24468;52.128;9.278;2023-02-15T04:55:43;15.65;;;11.52;;
38717;SDS011;24468;52.128;9.278;2023-02-15T04:58:09;14.75;;;11.48;;
38717;SDS011;24468;52.128;9.278;2023-02-15T05:00:34;16.00;;;11.02;;
38717;SDS011;24468;52.128;9.278;2023-02-15T05:03:00;15.68;;;11.90;;
38717;SDS011;24468;52.128;9.278;2023-02-15T05:05:25;16.48;;;12.38;;
38717;SDS011;24468;52.128;9.278;2023-02-15T05:07:51;15.00;;;11.13;;
38717;SDS011;24468;52.128;9.278;2023-02-15T05:10:16;15.20;;;11.75;;
38717;SDS011;24468;52.128;9.278;2023-02-15T05:12:42;15.88;;;12.05;;
38717;SDS011;24468;52.128;9.278;2023-02-15T05:15:08;15.38;;;11.35;;
38717;SDS011;24468;52.128;9.278;2023-02-15T05:17:34;14.27;;;10.80;;
38717;SDS011;24468;52.128;9.278;2023-02-15T05:20:01;14.88;;;12.10;;
38717;SDS011;24468;52.128;9.278;2023-02-15T05:22:26;14.05;;;10.82;;
38717;SDS011;24468;52.128;9.278;2023-02-15T05:24:52;15.43;;;11.15;;
38717;SDS011;24468;52.128;9.278;2023-02-15T05:27:36;15.52;;;11.07;;
38717;SDS011;24468;52.128;9.278;2023-02-15T05:30:20;14.07;;;10.70;;
38717;SDS011;24468;52.128;9.278;2023-02-15T05:32:45;14.30;;;10.48;;
38717;SDS011;24468;52.128;9.278;2023-02-15T05:35:12;17.45;;;11.90;;
38717;SDS011;24468;52.128;9.278;2023-02-15T05:37:40;17.00;;;11.65;;
38717;SDS011;24468;52.128;9.278;2023-02-15T05:40:06;15.20;;;11.82;;
38717;SDS011;24468;52.128;9.278;2023-02-15T05:42:32;17.08;;;11.85;;
38717;SDS011;24468;52.128;9.278;2023-02-15T05:44:58;16.08;;;11.90;;
38717;SDS011;24468;52.128;9.278;2023-02-15T05:47:23;15.05;;;10.88;;
38717;SDS011;24468;52.128;9.278;2023-02-15T05:49:49;16.13;;;11.90;;
38717;SDS011;24468;52.128;9.278;2023-02-15T05:52:14;17.92;;;12.80;;
38717;SDS011;24468;52.128;9.278;2023-02-15T05:54:40;15.63;;;12.13;;
38717;SDS011;24468;52.128;9.278;2023-02-15T05:57:06;15.10;;;11.35;;
38717;SDS011;24468;52.128;9.278;2023-02-15T05:59:31;13.93;;;11.30;;
38717;SDS011;24468;52.128;9.278;2023-02-15T06:01:57;17.02;;;12.55;;
38717;SDS011;24468;52.128;9.278;2023-02-15T06:04:22;15.15;;;10.93;;
38717;SDS011;24468;52.128;9.278;2023-02-15T06:06:48;16.33;;;12.45;;
38717;SDS011;24468;52.128;9.278;2023-02-15T06:09:13;15.80;;;11.75;;
38717;SDS011;24468;52.128;9.278;2023-02-15T06:11:39;14.18;;;11.10;;
38717;SDS011;24468;52.128;9.278;2023-02-15T06:14:05;16.05;;;12.15;;
38717;SDS011;24468;52.128;9.278;2023-02-15T06:16:30;16.33;;;11.77;;
38717;SDS011;24468;52.128;9.278;2023-02-15T06:18:56;17.27;;;11.98;;
38717;SDS011;24468;52.128;9.278;2023-02-15T06:21:22;15.30;;;11.55;;
38717;SDS011;24468;52.128;9.278;2023-02-15T06:23:47;16.17;;;11.88;;
38717;SDS011;24468;52.128;9.278;2023-02-15T06:26:13;15.32;;;10.70;;
38717;SDS011;24468;52.128;9.278;2023-02-15T06:28:38;16.08;;;12.00;;
38717;SDS011;24468;52.128;9.278;2023-02-15T06:31:06;17.00;;;12.20;;
38717;SDS011;24468;52.128;9.278;2023-02-15T06:33:31;12.18;;;9.68;;
38717;SDS011;24468;52.128;9.278;2023-02-15T06:35:58;14.65;;;8.90;;
38717;SDS011;24468;52.128;9.278;2023-02-15T06:38:24;13.73;;;10.18;;
38717;SDS011;24468;52.128;9.278;2023-02-15T06:40:50;17.42;;;13.43;;
38717;SDS011;24468;52.128;9.278;2023-02-15T06:43:15;15.93;;;11.93;;
38717;SDS011;24468;52.128;9.278;2023-02-15T06:45:41;13.32;;;10.70;;
38717;SDS011;24468;52.128;9.278;2023-02-15T06:48:07;13.73;;;11.05;;
38717;SDS011;24468;52.128;9.278;2023-02-15T06:50:33;13.95;;;10.90;;
38717;SDS011;24468;52.128;9.278;2023-02-15T06:52:59;12.18;;;10.60;;
38717;SDS011;24468;52.128;9.278;2023-02-15T06:55:25;14.93;;;10.32;;
38717;SDS011;24468;52.128;9.278;2023-02-15T06:57:51;20.02;;;12.90;;
38717;SDS011;24468;52.128;9.278;2023-02-15T07:00:17;16.13;;;12.85;;
38717;SDS011;24468;52.128;9.278;2023-02-15T07:02:43;12.85;;;10.40;;
38717;SDS011;24468;52.128;9.278;2023-02-15T07:05:09;12.43;;;10.10;;
38717;SDS011;24468;52.128;9.278;2023-02-15T07:07:35;13.30;;;10.05;;
38717;SDS011;24468;52.128;9.278;2023-02-15T07:10:00;15.32;;;11.00;;
38717;SDS011;24468;52.128;9.278;2023-02-15T07:12:26;12.88;;;10.43;;
38717;SDS011;24468;52.128;9.278;2023-02-15T07:15:08;13.07;;;10.73;;
38717;SDS011;24468;52.128;9.278;2023-02-15T07:17:35;12.52;;;9.82;;
38717;SDS011;24468;52.128;9.278;2023-02-15T07:20:05;13.00;;;10.20;;
38717;SDS011;24468;52.128;9.278;2023-02-15T07:22:43;11.93;;;9.70;;
38717;SDS011;24468;52.128;9.278;2023-02-15T07:25:09;13.38;;;10.50;;
38717;SDS011;24468;52.128;9.278;2023-02-15T07:27:37;13.13;;;10.52;;
38717;SDS011;24468;52.128;9.278;2023-02-15T07:30:03;15.18;;;11.48;;
38717;SDS011;24468;52.128;9.278;2023-02-15T07:32:31;14.65;;;10.85;;
38717;SDS011;24468;52.128;9.278;2023-02-15T07:34:57;12.30;;;10.50;;
38717;SDS011;24468;52.128;9.278;2023-02-15T07:37:24;13.07;;;10.27;;
38717;SDS011;24468;52.128;9.278;2023-02-15T07:39:49;18.35;;;11.88;;
38717;SDS011;24468;52.128;9.278;2023-02-15T07:42:15;14.60;;;10.68;;
38717;SDS011;24468;52.128;9.278;2023-02-15T07:44:41;12.35;;;10.02;;
38717;SDS011;24468;52.128;9.278;2023-02-15T07:47:06;14.48;;;10.88;;
38717;SDS011;24468;52.128;9.278;2023-02-15T07:49:32;13.93;;;10.30;;
38717;SDS011;24468;52.128;9.278;2023-02-15T07:51:57;14.00;;;10.98;;
38717;SDS011;24468;52.128;9.278;2023-02-15T07:54:26;15.02;;;10.23;;
38717;SDS011;24468;52.128;9.278;2023-02-15T07:56:51;13.23;;;9.93;;
38717;SDS011;24468;52.128;9.278;2023-02-15T07:59:17;14.18;;;10.95;;
38717;SDS011;24468;52.128;9.278;2023-02-15T08:01:42;15.57;;;10.45;;
38717;SDS011;24468;52.128;9.278;2023-02-15T08:04:08;14.65;;;9.93;;
38717;SDS011;24468;52.128;9.278;2023-02-15T08:06:36;10.80;;;9.02;;
38717;SDS011;24468;52.128;9.278;2023-02-15T08:09:03;12.75;;;10.25;;
38717;SDS011;24468;52.128;9.278;2023-02-15T08:11:32;14.52;;;10.90;;
38717;SDS011;24468;52.128;9.278;2023-02-15T08:16:32;12.95;;;9.80;;
38717;SDS011;24468;52.128;9.278;2023-02-15T08:19:08;12.48;;;9.82;;
38717;SDS011;24468;52.128;9.278;2023-02-15T08:21:39;12.70;;;9.40;;
38717;SDS011;24468;52.128;9.278;2023-02-15T08:24:08;16.02;;;10.90;;
38717;SDS011;24468;52.128;9.278;2023-02-15T08:26:36;12.05;;;9.65;;
38717;SDS011;24468;52.128;9.278;2023-02-15T08:29:04;11.63;;;8.55;;
38717;SDS011;24468;52.128;9.278;2023-02-15T08:31:31;13.07;;;9.63;;
38717;SDS011;24468;52.128;9.278;2023-02-15T08:33:58;12.70;;;9.40;;
38717;SDS011;24468;52.128;9.278;2023-02-15T08:36:24;10.07;;;8.75;;
38717;SDS011;24468;52.128;9.278;2023-02-15T08:38:54;11.05;;;8.48;;
38717;SDS011;24468;52.128;9.278;2023-02-15T08:43:54;11.27;;;8.65;;
38717;SDS011;24468;52.128;9.278;2023-02-15T08:46:21;11.30;;;8.97;;
38717;SDS011;24468;52.128;9.278;2023-02-15T08:48:49;13.48;;;8.88;;
38717;SDS011;24468;52.128;9.278;2023-02-15T08:51:16;12.00;;;9.20;;
38717;SDS011;24468;52.128;9.278;2023-02-15T08:53:46;12.50;;;9.80;;
38717;SDS011;24468;52.128;9.278;2023-02-15T08:56:16;12.60;;;9.20;;
38717;SDS011;24468;52.128;9.278;2023-02-15T08:58:45;14.20;;;9.93;;
38717;SDS011;24468;52.128;9.278;2023-02-15T09:01:11;14.68;;;10.35;;
38717;SDS011;24468;52.128;9.278;2023-02-15T09:03:46;19.10;;;10.63;;
38717;SDS011;24468;52.128;9.278;2023-02-15T09:06:14;13.38;;;9.93;;
38717;SDS011;24468;52.128;9.278;2023-02-15T09:08:41;11.80;;;9.18;;
38717;SDS011;24468;52.128;9.278;2023-02-15T09:11:11;11.48;;;9.90;;
38717;SDS011;24468;52.128;9.278;2023-02-15T09:13:47;12.02;;;9.23;;
38717;SDS011;24468;52.128;9.278;2023-02-15T09:16:14;10.80;;;8.93;;
38717;SDS011;24468;52.128;9.278;2023-02-15T09:18:41;11.48;;;8.90;;
38717;SDS011;24468;52.128;9.278;2023-02-15T09:21:12;11.07;;;8.27;;
38717;SDS011;24468;52.128;9.278;2023-02-15T09:23:40;9.63;;;8.38;;
38717;SDS011;24468;52.128;9.278;2023-02-15T09:26:09;11.18;;;8.73;;
38717;SDS011;24468;52.128;9.278;2023-02-15T09:28:40;10.73;;;8.45;;
38717;SDS011;24468;52.128;9.278;2023-02-15T09:31:13;12.52;;;9.10;;
38717;SDS011;24468;52.128;9.278;2023-02-15T09:33:44;9.88;;;8.45;;
38717;SDS011;24468;52.128;9.278;2023-02-15T09:36:16;11.23;;;8.85;;
38717;SDS011;24468;52.128;9.278;2023-02-15T09:38:52;11.90;;;8.85;;
38717;SDS011;24468;52.128;9.278;2023-02-15T09:58:41;10.20;;;7.90;;
38717;SDS011;24468;52.128;9.278;2023-02-15T10:04:23;13.57;;;9.25;;
38717;SDS011;24468;52.128;9.278;2023-02-15T10:08:18;10.40;;;8.77;;
38717;SDS011;24468;52.128;9.278;2023-02-15T10:11:09;11.30;;;8.30;;
38717;SDS011;24468;52.128;9.278;2023-02-15T10:22:15;10.13;;;8.25;;
38717;SDS011;24468;52.128;9.278;2023-02-15T10:27:48;9.73;;;8.25;;
38717;SDS011;24468;52.128;9.278;2023-02-15T10:30:15;29.92;;;16.23;;
38717;SDS011;24468;52.128;9.278;2023-02-15T10:33:00;11.02;;;8.85;;
38717;SDS011;24468;52.128;9.278;2023-02-15T10:35:50;12.05;;;10.13;;
38717;SDS011;24468;52.128;9.278;2023-02-15T11:08:04;12.15;;;8.70;;
38717;SDS011;24468;52.128;9.278;2023-02-15T11:10:38;10.98;;;8.15;;
38717;SDS011;24468;52.128;9.278;2023-02-15T11:13:13;10.43;;;8.27;;
38717;SDS011;24468;52.128;9.278;2023-02-15T11:15:44;14.43;;;10.60;;
38717;SDS011;24468;52.128;9.278;2023-02-15T11:21:06;12.90;;;8.80;;
38717;SDS011;24468;52.128;9.278;2023-02-15T11:23:40;11.30;;;8.18;;
38717;SDS011;24468;52.128;9.278;2023-02-15T11:26:13;10.95;;;7.78;;
38717;SDS011;24468;52.128;9.278;2023-02-15T11:28:51;10.88;;;8.27;;
38717;SDS011;24468;52.128;9.278;2023-02-15T11:31:25;13.98;;;10.25;;
38717;SDS011;24468;52.128;9.278;2023-02-15T11:34:10;10.65;;;8.48;;
38717;SDS011;24468;52.128;9.278;2023-02-15T11:37:00;10.65;;;8.25;;
38717;SDS011;24468;52.128;9.278;2023-02-15T11:39:35;10.02;;;7.90;;
38717;SDS011;24468;52.128;9.278;2023-02-15T11:42:02;9.27;;;7.97;;
38717;SDS011;24468;52.128;9.278;2023-02-15T11:44:41;10.48;;;7.32;;
38717;SDS011;24468;52.128;9.278;2023-02-15T11:47:21;11.35;;;8.32;;
38717;SDS011;24468;52.128;9.278;2023-02-15T11:49:47;12.63;;;8.43;;
38717;SDS011;24468;52.128;9.278;2023-02-15T11:52:14;12.73;;;9.40;;
38717;SDS011;24468;52.128;9.278;2023-02-15T11:54:43;11.48;;;8.02;;
38717;SDS011;24468;52.128;9.278;2023-02-15T11:57:19;20.35;;;8.10;;
38717;SDS011;24468;52.128;9.278;2023-02-15T12:02:39;16.27;;;8.40;;
38717;SDS011;24468;52.128;9.278;2023-02-15T12:05:12;14.40;;;7.95;;
38717;SDS011;24468;52.128;9.278;2023-02-15T12:07:43;10.00;;;8.30;;
38717;SDS011;24468;52.128;9.278;2023-02-15T12:10:20;10.48;;;8.65;;
38717;SDS011;24468;52.128;9.278;2023-02-15T12:15:40;12.05;;;7.93;;
38717;SDS011;24468;52.128;9.278;2023-02-15T12:18:33;11.07;;;7.85;;
38717;SDS011;24468;52.128;9.278;2023-02-15T12:21:10;11.38;;;8.18;;
38717;SDS011;24468;52.128;9.278;2023-02-15T12:26:28;11.65;;;8.68;;
38717;SDS011;24468;52.128;9.278;2023-02-15T12:29:00;9.90;;;7.68;;
38717;SDS011;24468;52.128;9.278;2023-02-15T12:31:39;11.98;;;9.27;;
38717;SDS011;24468;52.128;9.278;2023-02-15T12:34:09;10.48;;;7.70;;
38717;SDS011;24468;52.128;9.278;2023-02-15T12:36:47;9.90;;;8.13;;
38717;SDS011;24468;52.128;9.278;2023-02-15T12:39:23;10.25;;;8.73;;
38717;SDS011;24468;52.128;9.278;2023-02-15T12:44:28;10.98;;;8.15;;
38717;SDS011;24468;52.128;9.278;2023-02-15T12:49:38;11.70;;;8.60;;
38717;SDS011;24468;52.128;9.278;2023-02-15T12:54:48;10.82;;;8.55;;
38717;SDS011;24468;52.128;9.278;2023-02-15T12:59:48;9.32;;;7.55;;
38717;SDS011;24468;52.128;9.278;2023-02-15T13:02:41;11.05;;;8.80;;
38717;SDS011;24468;52.128;9.278;2023-02-15T13:08:18;10.70;;;7.95;;
38717;SDS011;24468;52.128;9.278;2023-02-15T13:11:03;11.43;;;8.90;;
38717;SDS011;24468;52.128;9.278;2023-02-15T13:13:35;9.77;;;7.97;;
38717;SDS011;24468;52.128;9.278;2023-02-15T13:16:30;12.93;;;9.20;;
38717;SDS011;24468;52.128;9.278;2023-02-15T13:19:06;11.20;;;8.43;;
38717;SDS011;24468;52.128;9.278;2023-02-15T13:21:44;10.63;;;7.82;;
38717;SDS011;24468;52.128;9.278;2023-02-15T13:24:23;10.73;;;8.75;;
38717;SDS011;24468;52.128;9.278;2023-02-15T13:26:54;11.07;;;8.20;;
38717;SDS011;24468;52.128;9.278;2023-02-15T13:29:23;9.68;;;8.10;;
38717;SDS011;24468;52.128;9.278;2023-02-15T13:31:53;11.52;;;8.90;;
38717;SDS011;24468;52.128;9.278;2023-02-15T13:34:25;13.52;;;9.30;;
38717;SDS011;24468;52.128;9.278;2023-02-15T13:39:58;11.43;;;8.52;;
38717;SDS011;24468;52.128;9.278;2023-02-15T13:42:36;11.27;;;8.43;;
38717;SDS011;24468;52.128;9.278;2023-02-15T13:45:20;10.10;;;8.30;;
38717;SDS011;24468;52.128;9.278;2023-02-15T13:56:46;11.88;;;8.02;;
38717;SDS011;24468;52.128;9.278;2023-02-15T13:59:29;10.68;;;8.10;;
38717;SDS011;24468;52.128;9.278;2023-02-15T14:04:49;12.80;;;9.18;;
38717;SDS011;24468;52.128;9.278;2023-02-15T14:08:01;11.80;;;8.98;;
38717;SDS011;24468;52.128;9.278;2023-02-15T14:11:03;13.15;;;9.25;;
38717;SDS011;24468;52.128;9.278;2023-02-15T14:19:53;10.60;;;8.18;;
38717;SDS011;24468;52.128;9.278;2023-02-15T14:25:05;10.63;;;8.25;;
38717;SDS011;24468;52.128;9.278;2023-02-15T14:27:44;10.48;;;8.60;;
38717;SDS011;24468;52.128;9.278;2023-02-15T14:30:46;13.30;;;9.23;;
38717;SDS011;24468;52.128;9.278;2023-02-15T14:35:46;11.57;;;8.82;;
38717;SDS011;24468;52.128;9.278;2023-02-15T14:45:04;11.15;;;8.45;;
38717;SDS011;24468;52.128;9.278;2023-02-15T14:47:12;11.02;;;8.52;;
38717;SDS011;24468;52.128;9.278;2023-02-15T14:58:36;10.48;;;8.18;;
38717;SDS011;24468;52.128;9.278;2023-02-15T15:01:06;10.00;;;8.43;;
38717;SDS011;24468;52.128;9.278;2023-02-15T15:03:35;13.02;;;7.88;;
38717;SDS011;24468;52.128;9.278;2023-02-15T15:06:19;10.70;;;8.57;;
38717;SDS011;24468;52.128;9.278;2023-02-15T15:11:51;12.18;;;8.55;;
38717;SDS011;24468;52.128;9.278;2023-02-15T15:14:40;13.48;;;8.55;;
38717;SDS011;24468;52.128;9.278;2023-02-15T15:17:09;10.57;;;8.38;;
38717;SDS011;24468;52.128;9.278;2023-02-15T15:22:17;12.15;;;8.63;;
38717;SDS011;24468;52.128;9.278;2023-02-15T15:24:55;12.98;;;9.18;;
38717;SDS011;24468;52.128;9.278;2023-02-15T15:41:40;11.43;;;8.32;;
38717;SDS011;24468;52.128;9.278;2023-02-15T15:47:48;11.10;;;8.65;;
38717;SDS011;24468;52.128;9.278;2023-02-15T15:50:29;10.63;;;8.90;;
38717;SDS011;24468;52.128;9.278;2023-02-15T15:52:57;10.90;;;7.93;;
38717;SDS011;24468;52.128;9.278;2023-02-15T15:55:27;12.13;;;8.27;;
38717;SDS011;24468;52.128;9.278;2023-02-15T15:57:57;12.15;;;9.95;;
38717;SDS011;24468;52.128;9.278;2023-02-15T16:03:03;15.23;;;9.88;;
38717;SDS011;24468;52.128;9.278;2023-02-15T16:05:39;20.20;;;12.07;;
38717;SDS011;24468;52.128;9.278;2023-02-15T16:08:04;13.38;;;9.75;;
38717;SDS011;24468;52.128;9.278;2023-02-15T16:10:30;13.27;;;10.20;;
38717;SDS011;24468;52.128;9.278;2023-02-15T16:12:58;15.50;;;10.60;;
38717;SDS011;24468;52.128;9.278;2023-02-15T16:15:29;15.43;;;11.23;;
38717;SDS011;24468;52.128;9.278;2023-02-15T16:18:15;15.82;;;10.40;;
38717;SDS011;24468;52.128;9.278;2023-02-15T16:20:48;13.38;;;9.50;;
38717;SDS011;24468;52.128;9.278;2023-02-15T16:29:53;13.40;;;9.53;;
38717;SDS011;24468;52.128;9.278;2023-02-15T16:32:20;13.02;;;8.80;;
38717;SDS011;24468;52.128;9.278;2023-02-15T16:34:55;14.77;;;10.40;;
38717;SDS011;24468;52.128;9.278;2023-02-15T16:37:36;13.18;;;9.93;;
38717;SDS011;24468;52.128;9.278;2023-02-15T16:40:01;11.27;;;8.75;;
38717;SDS011;24468;52.128;9.278;2023-02-15T16:42:28;11.95;;;8.68;;
38717;SDS011;24468;52.128;9.278;2023-02-15T16:45:12;12.23;;;9.32;;
38717;SDS011;24468;52.128;9.278;2023-02-15T16:47:43;12.55;;;8.98;;
38717;SDS011;24468;52.128;9.278;2023-02-15T16:50:18;12.10;;;8.23;;
38717;SDS011;24468;52.128;9.278;2023-02-15T16:52:49;11.77;;;8.85;;
38717;SDS011;24468;52.128;9.278;2023-02-15T16:55:26;18.63;;;9.75;;
38717;SDS011;24468;52.128;9.278;2023-02-15T16:58:00;12.27;;;9.10;;
38717;SDS011;24468;52.128;9.278;2023-02-15T17:00:31;13.00;;;9.32;;
38717;SDS011;24468;52.128;9.278;2023-02-15T17:03:02;14.85;;;8.80;;
38717;SDS011;24468;52.128;9.278;2023-02-15T17:05:31;13.05;;;9.77;;
38717;SDS011;24468;52.128;9.278;2023-02-15T17:10:45;13.93;;;9.88;;
38717;SDS011;24468;52.128;9.278;2023-02-15T17:13:28;12.90;;;9.27;;
38717;SDS011;24468;52.128;9.278;2023-02-15T17:18:29;14.23;;;10.50;;
38717;SDS011;24468;52.128;9.278;2023-02-15T17:20:59;14.65;;;10.63;;
38717;SDS011;24468;52.128;9.278;2023-02-15T17:23:43;14.18;;;9.23;;
38717;SDS011;24468;52.128;9.278;2023-02-15T17:26:22;13.23;;;9.95;;
38717;SDS011;24468;52.128;9.278;2023-02-15T17:28:52;18.50;;;10.20;;
38717;SDS011;24468;52.128;9.278;2023-02-15T17:31:22;13.07;;;9.57;;
38717;SDS011;24468;52.128;9.278;2023-02-15T17:33:53;13.02;;;10.07;;
38717;SDS011;24468;52.128;9.278;2023-02-15T17:36:21;20.85;;;12.88;;
38717;SDS011;24468;52.128;9.278;2023-02-15T17:41:44;15.95;;;11.85;;
38717;SDS011;24468;52.128;9.278;2023-02-15T17:44:09;21.77;;;14.10;;
38717;SDS011;24468;52.128;9.278;2023-02-15T17:46:39;21.42;;;15.23;;
38717;SDS011;24468;52.128;9.278;2023-02-15T17:49:05;19.92;;;13.52;;
38717;SDS011;24468;52.128;9.278;2023-02-15T17:51:31;27.25;;;18.17;;
38717;SDS011;24468;52.128;9.278;2023-02-15T17:54:00;30.73;;;20.98;;
38717;SDS011;24468;52.128;9.278;2023-02-15T17:56:45;22.85;;;16.98;;
38717;SDS011;24468;52.128;9.278;2023-02-15T17:59:11;18.90;;;14.77;;
38717;SDS011;24468;52.128;9.278;2023-02-15T18:01:40;16.58;;;11.25;;
38717;SDS011;24468;52.128;9.278;2023-02-15T18:04:31;14.68;;;11.55;;
38717;SDS011;24468;52.128;9.278;2023-02-15T18:07:18;12.32;;;10.38;;
38717;SDS011;24468;52.128;9.278;2023-02-15T18:10:05;18.70;;;11.48;;
38717;SDS011;24468;52.128;9.278;2023-02-15T18:13:00;20.73;;;13.98;;
38717;SDS011;24468;52.128;9.278;2023-02-15T18:15:25;24.00;;;16.10;;